sensor_id;sensor_type;location;lat;lon;timestamp;temperature;humidity
13093;DHT22;6612;49.568;11.000;2022-07-29T00:01:53;25.00;32.50
13093;DHT22;6612;49.568;11.000;2022-07-29T00:04:20;25.00;32.40
13093;DHT22;6612;49.568;11.000;2022-07-29T00:06:47;25.00;32.50
13093;DHT22;6612;49.568;11.000;2022-07-29T00:09:15;25.00;32.40
13093;DHT22;6612;49.568;11.000;2022-07-29T00:11:42;25.00;32.90
13093;DHT22;6612;49.568;11.000;2022-07-29T00:14:09;25.00;32.40
13093;DHT22;6612;49.568;11.000;2022-07-29T00:16:36;24.90;32.40
13093;DHT22;6612;49.568;11.000;2022-07-29T00:19:04;24.90;33.10
13093;DHT22;6612;49.568;11.000;2022-07-29T00:21:31;24.90;32.50
13093;DHT22;6612;49.568;11.000;2022-07-29T00:23:58;24.90;32.50
13093;DHT22;6612;49.568;11.000;2022-07-29T00:26:26;24.90;32.70
13093;DHT22;6612;49.568;11.000;2022-07-29T00:28:57;24.90;32.60
13093;DHT22;6612;49.568;11.000;2022-07-29T00:31:24;24.90;32.50
13093;DHT22;6612;49.568;11.000;2022-07-29T00:33:51;24.90;32.50
13093;DHT22;6612;49.568;11.000;2022-07-29T00:36:18;24.90;32.50
13093;DHT22;6612;49.568;11.000;2022-07-29T00:38:46;24.90;32.40
13093;DHT22;6612;49.568;11.000;2022-07-29T00:41:13;24.90;32.40
13093;DHT22;6612;49.568;11.000;2022-07-29T00:43:41;24.90;32.50
13093;DHT22;6612;49.568;11.000;2022-07-29T00:46:08;24.90;32.50
13093;DHT22;6612;49.568;11.000;2022-07-29T00:48:35;24.90;32.50
13093;DHT22;6612;49.568;11.000;2022-07-29T00:51:03;24.90;32.50
13093;DHT22;6612;49.568;11.000;2022-07-29T00:53:31;24.90;32.50
13093;DHT22;6612;49.568;11.000;2022-07-29T00:55:58;24.90;32.50
13093;DHT22;6612;49.568;11.000;2022-07-29T00:58:26;24.90;32.50
13093;DHT22;6612;49.568;11.000;2022-07-29T01:00:55;24.90;32.50
13093;DHT22;6612;49.568;11.000;2022-07-29T01:03:22;24.90;32.60
13093;DHT22;6612;49.568;11.000;2022-07-29T01:05:49;24.90;32.50
13093;DHT22;6612;49.568;11.000;2022-07-29T01:08:17;24.90;32.50
13093;DHT22;6612;49.568;11.000;2022-07-29T01:10:45;24.90;32.50
13093;DHT22;6612;49.568;11.000;2022-07-29T01:13:14;24.90;32.40
13093;DHT22;6612;49.568;11.000;2022-07-29T01:15:43;24.90;32.60
13093;DHT22;6612;49.568;11.000;2022-07-29T01:18:17;25.00;32.70
13093;DHT22;6612;49.568;11.000;2022-07-29T01:21:00;25.00;33.00
13093;DHT22;6612;49.568;11.000;2022-07-29T01:26:45;25.00;33.50
13093;DHT22;6612;49.568;11.000;2022-07-29T01:29:21;25.00;33.30
13093;DHT22;6612;49.568;11.000;2022-07-29T01:31:56;25.00;33.20
13093;DHT22;6612;49.568;11.000;2022-07-29T01:34:29;25.00;33.10
13093;DHT22;6612;49.568;11.000;2022-07-29T01:37:06;24.90;33.30
13093;DHT22;6612;49.568;11.000;2022-07-29T01:39:36;24.90;34.20
13093;DHT22;6612;49.568;11.000;2022-07-29T01:42:10;24.90;33.50
13093;DHT22;6612;49.568;11.000;2022-07-29T01:44:46;24.90;33.60
13093;DHT22;6612;49.568;11.000;2022-07-29T01:47:19;24.90;33.60
13093;DHT22;6612;49.568;11.000;2022-07-29T01:49:54;24.80;33.60
13093;DHT22;6612;49.568;11.000;2022-07-29T01:52:27;24.80;33.90
13093;DHT22;6612;49.568;11.000;2022-07-29T01:54:58;24.80;34.00
13093;DHT22;6612;49.568;11.000;2022-07-29T01:57:29;24.70;33.70
13093;DHT22;6612;49.568;11.000;2022-07-29T02:00:01;24.70;33.70
13093;DHT22;6612;49.568;11.000;2022-07-29T02:02:30;24.70;34.00
13093;DHT22;6612;49.568;11.000;2022-07-29T02:05:00;24.60;33.90
13093;DHT22;6612;49.568;11.000;2022-07-29T02:07:29;24.60;33.90
13093;DHT22;6612;49.568;11.000;2022-07-29T02:09:57;24.60;34.20
13093;DHT22;6612;49.568;11.000;2022-07-29T02:12:25;24.50;34.20
13093;DHT22;6612;49.568;11.000;2022-07-29T02:14:54;24.50;34.30
13093;DHT22;6612;49.568;11.000;2022-07-29T02:17:27;24.50;35.10
13093;DHT22;6612;49.568;11.000;2022-07-29T02:19:57;24.50;34.80
13093;DHT22;6612;49.568;11.000;2022-07-29T02:22:28;24.40;34.60
13093;DHT22;6612;49.568;11.000;2022-07-29T02:24:56;24.40;34.60
13093;DHT22;6612;49.568;11.000;2022-07-29T02:27:25;24.30;34.40
13093;DHT22;6612;49.568;11.000;2022-07-29T02:29:53;24.30;34.60
13093;DHT22;6612;49.568;11.000;2022-07-29T02:32:22;24.20;34.50
13093;DHT22;6612;49.568;11.000;2022-07-29T02:34:52;24.20;34.70
13093;DHT22;6612;49.568;11.000;2022-07-29T02:37:20;24.10;34.90
13093;DHT22;6612;49.568;11.000;2022-07-29T02:39:48;24.10;34.90
13093;DHT22;6612;49.568;11.000;2022-07-29T02:42:17;24.00;34.80
13093;DHT22;6612;49.568;11.000;2022-07-29T02:44:45;24.00;35.00
13093;DHT22;6612;49.568;11.000;2022-07-29T02:47:17;23.90;35.00
13093;DHT22;6612;49.568;11.000;2022-07-29T02:49:57;23.90;35.20
13093;DHT22;6612;49.568;11.000;2022-07-29T02:52:33;23.80;35.40
13093;DHT22;6612;49.568;11.000;2022-07-29T02:55:07;23.80;35.30
13093;DHT22;6612;49.568;11.000;2022-07-29T02:57:42;23.80;35.40
13093;DHT22;6612;49.568;11.000;2022-07-29T03:00:11;23.70;35.40
13093;DHT22;6612;49.568;11.000;2022-07-29T03:02:40;23.70;35.30
13093;DHT22;6612;49.568;11.000;2022-07-29T03:05:14;23.60;35.40
13093;DHT22;6612;49.568;11.000;2022-07-29T03:07:46;23.60;35.60
13093;DHT22;6612;49.568;11.000;2022-07-29T03:10:14;23.50;35.60
13093;DHT22;6612;49.568;11.000;2022-07-29T03:12:41;23.50;35.60
13093;DHT22;6612;49.568;11.000;2022-07-29T03:15:10;23.40;35.70
13093;DHT22;6612;49.568;11.000;2022-07-29T03:17:37;23.40;35.90
13093;DHT22;6612;49.568;11.000;2022-07-29T03:20:07;23.30;35.90
13093;DHT22;6612;49.568;11.000;2022-07-29T03:22:39;23.30;36.00
13093;DHT22;6612;49.568;11.000;2022-07-29T03:25:11;23.30;36.50
13093;DHT22;6612;49.568;11.000;2022-07-29T03:27:39;23.20;36.50
13093;DHT22;6612;49.568;11.000;2022-07-29T03:30:07;23.20;36.50
13093;DHT22;6612;49.568;11.000;2022-07-29T03:32:35;23.20;36.60
13093;DHT22;6612;49.568;11.000;2022-07-29T03:35:03;23.20;36.80
13093;DHT22;6612;49.568;11.000;2022-07-29T03:37:30;23.20;36.90
13093;DHT22;6612;49.568;11.000;2022-07-29T03:39:59;23.20;36.90
13093;DHT22;6612;49.568;11.000;2022-07-29T03:42:31;23.10;36.80
13093;DHT22;6612;49.568;11.000;2022-07-29T03:45:03;23.10;37.30
13093;DHT22;6612;49.568;11.000;2022-07-29T03:47:33;23.10;37.30
13093;DHT22;6612;49.568;11.000;2022-07-29T03:50:05;23.10;37.20
13093;DHT22;6612;49.568;11.000;2022-07-29T03:52:32;23.00;37.20
13093;DHT22;6612;49.568;11.000;2022-07-29T03:55:00;23.00;37.20
13093;DHT22;6612;49.568;11.000;2022-07-29T03:57:30;23.00;37.40
13093;DHT22;6612;49.568;11.000;2022-07-29T03:59:57;23.00;37.70
13093;DHT22;6612;49.568;11.000;2022-07-29T04:02:25;22.90;37.50
13093;DHT22;6612;49.568;11.000;2022-07-29T04:04:52;22.90;37.60
13093;DHT22;6612;49.568;11.000;2022-07-29T04:07:19;22.90;37.70
13093;DHT22;6612;49.568;11.000;2022-07-29T04:09:46;22.80;37.70
13093;DHT22;6612;49.568;11.000;2022-07-29T04:12:13;22.80;37.60
13093;DHT22;6612;49.568;11.000;2022-07-29T04:14:42;22.80;37.80
13093;DHT22;6612;49.568;11.000;2022-07-29T04:17:09;22.80;37.80
13093;DHT22;6612;49.568;11.000;2022-07-29T04:19:36;22.70;37.80
13093;DHT22;6612;49.568;11.000;2022-07-29T04:22:03;22.70;37.90
13093;DHT22;6612;49.568;11.000;2022-07-29T04:24:29;22.70;38.10
13093;DHT22;6612;49.568;11.000;2022-07-29T04:26:56;22.70;38.20
13093;DHT22;6612;49.568;11.000;2022-07-29T04:29:23;22.70;38.30
13093;DHT22;6612;49.568;11.000;2022-07-29T04:31:52;22.70;39.00
13093;DHT22;6612;49.568;11.000;2022-07-29T04:34:19;22.70;38.40
13093;DHT22;6612;49.568;11.000;2022-07-29T04:36:45;22.70;38.40
13093;DHT22;6612;49.568;11.000;2022-07-29T04:39:12;22.70;38.60
13093;DHT22;6612;49.568;11.000;2022-07-29T04:41:40;22.70;38.70
13093;DHT22;6612;49.568;11.000;2022-07-29T04:44:07;22.70;38.80
13093;DHT22;6612;49.568;11.000;2022-07-29T04:46:34;22.70;38.90
13093;DHT22;6612;49.568;11.000;2022-07-29T04:49:03;22.70;38.90
13093;DHT22;6612;49.568;11.000;2022-07-29T04:51:30;22.70;39.10
13093;DHT22;6612;49.568;11.000;2022-07-29T04:53:57;22.80;39.30
13093;DHT22;6612;49.568;11.000;2022-07-29T04:56:24;22.80;39.40
13093;DHT22;6612;49.568;11.000;2022-07-29T04:58:51;22.90;39.80
13093;DHT22;6612;49.568;11.000;2022-07-29T05:01:18;23.00;40.00
13093;DHT22;6612;49.568;11.000;2022-07-29T05:03:45;23.20;40.10
13093;DHT22;6612;49.568;11.000;2022-07-29T05:06:13;23.30;39.80
13093;DHT22;6612;49.568;11.000;2022-07-29T05:08:40;23.50;40.10
13093;DHT22;6612;49.568;11.000;2022-07-29T05:11:07;23.60;40.20
13093;DHT22;6612;49.568;11.000;2022-07-29T05:13:34;23.70;40.00
13093;DHT22;6612;49.568;11.000;2022-07-29T05:16:04;23.90;40.00
13093;DHT22;6612;49.568;11.000;2022-07-29T05:18:31;24.10;40.30
13093;DHT22;6612;49.568;11.000;2022-07-29T05:20:58;24.40;40.80
13093;DHT22;6612;49.568;11.000;2022-07-29T05:23:28;24.70;41.00
13093;DHT22;6612;49.568;11.000;2022-07-29T05:25:55;25.10;41.00
13093;DHT22;6612;49.568;11.000;2022-07-29T05:28:22;25.50;40.50
13093;DHT22;6612;49.568;11.000;2022-07-29T05:30:49;25.80;40.00
13093;DHT22;6612;49.568;11.000;2022-07-29T05:33:16;26.10;39.80
13093;DHT22;6612;49.568;11.000;2022-07-29T05:35:43;26.50;39.70
13093;DHT22;6612;49.568;11.000;2022-07-29T05:38:10;26.80;39.50
13093;DHT22;6612;49.568;11.000;2022-07-29T05:40:38;27.20;39.00
13093;DHT22;6612;49.568;11.000;2022-07-29T05:43:05;27.60;38.40
13093;DHT22;6612;49.568;11.000;2022-07-29T05:45:32;27.80;37.30
13093;DHT22;6612;49.568;11.000;2022-07-29T05:47:59;28.00;36.20
13093;DHT22;6612;49.568;11.000;2022-07-29T05:50:26;28.20;35.50
13093;DHT22;6612;49.568;11.000;2022-07-29T05:52:53;28.30;34.70
13093;DHT22;6612;49.568;11.000;2022-07-29T05:55:20;28.30;34.30
13093;DHT22;6612;49.568;11.000;2022-07-29T05:57:48;28.30;33.80
13093;DHT22;6612;49.568;11.000;2022-07-29T06:00:16;28.20;33.30
13093;DHT22;6612;49.568;11.000;2022-07-29T06:02:43;28.30;33.20
13093;DHT22;6612;49.568;11.000;2022-07-29T06:05:10;28.40;33.80
13093;DHT22;6612;49.568;11.000;2022-07-29T06:07:37;28.70;34.10
13093;DHT22;6612;49.568;11.000;2022-07-29T06:10:04;29.10;34.20
13093;DHT22;6612;49.568;11.000;2022-07-29T06:12:31;29.70;34.90
13093;DHT22;6612;49.568;11.000;2022-07-29T06:15:00;30.20;33.60
13093;DHT22;6612;49.568;11.000;2022-07-29T06:17:27;30.80;33.00
13093;DHT22;6612;49.568;11.000;2022-07-29T06:19:54;31.40;33.50
13093;DHT22;6612;49.568;11.000;2022-07-29T06:22:21;32.00;31.90
13093;DHT22;6612;49.568;11.000;2022-07-29T06:24:48;32.50;31.10
13093;DHT22;6612;49.568;11.000;2022-07-29T06:27:15;33.00;30.80
13093;DHT22;6612;49.568;11.000;2022-07-29T06:29:42;33.50;30.40
13093;DHT22;6612;49.568;11.000;2022-07-29T06:32:10;34.10;30.20
13093;DHT22;6612;49.568;11.000;2022-07-29T06:34:37;34.70;29.30
13093;DHT22;6612;49.568;11.000;2022-07-29T06:37:07;35.20;28.90
13093;DHT22;6612;49.568;11.000;2022-07-29T06:39:35;35.70;27.70
13093;DHT22;6612;49.568;11.000;2022-07-29T06:42:03;36.10;27.40
13093;DHT22;6612;49.568;11.000;2022-07-29T06:44:30;36.50;27.00
13093;DHT22;6612;49.568;11.000;2022-07-29T06:46:59;36.80;27.00
13093;DHT22;6612;49.568;11.000;2022-07-29T06:49:27;37.20;27.40
13093;DHT22;6612;49.568;11.000;2022-07-29T06:51:54;37.70;26.50
13093;DHT22;6612;49.568;11.000;2022-07-29T06:54:22;38.20;26.20
13093;DHT22;6612;49.568;11.000;2022-07-29T06:56:49;38.50;25.40
13093;DHT22;6612;49.568;11.000;2022-07-29T06:59:16;38.80;25.00
13093;DHT22;6612;49.568;11.000;2022-07-29T07:01:43;38.90;24.90
13093;DHT22;6612;49.568;11.000;2022-07-29T07:04:10;38.90;23.70
13093;DHT22;6612;49.568;11.000;2022-07-29T07:06:40;38.70;23.40
13093;DHT22;6612;49.568;11.000;2022-07-29T07:09:07;38.70;23.40
13093;DHT22;6612;49.568;11.000;2022-07-29T07:11:34;38.70;23.60
13093;DHT22;6612;49.568;11.000;2022-07-29T07:14:01;38.90;23.90
13093;DHT22;6612;49.568;11.000;2022-07-29T07:16:29;39.20;24.00
13093;DHT22;6612;49.568;11.000;2022-07-29T07:18:56;39.50;23.90
13093;DHT22;6612;49.568;11.000;2022-07-29T07:21:23;39.70;23.90
13093;DHT22;6612;49.568;11.000;2022-07-29T07:23:51;39.90;23.40
13093;DHT22;6612;49.568;11.000;2022-07-29T07:26:18;40.00;23.10
13093;DHT22;6612;49.568;11.000;2022-07-29T07:28:45;40.10;23.10
13093;DHT22;6612;49.568;11.000;2022-07-29T07:31:12;40.20;22.70
13093;DHT22;6612;49.568;11.000;2022-07-29T07:33:39;40.30;22.40
13093;DHT22;6612;49.568;11.000;2022-07-29T07:36:06;40.20;22.60
13093;DHT22;6612;49.568;11.000;2022-07-29T07:38:34;40.20;21.90
13093;DHT22;6612;49.568;11.000;2022-07-29T07:41:02;40.00;21.60
13093;DHT22;6612;49.568;11.000;2022-07-29T07:43:29;39.70;21.30
13093;DHT22;6612;49.568;11.000;2022-07-29T07:45:56;39.30;21.50
13093;DHT22;6612;49.568;11.000;2022-07-29T07:48:23;38.90;21.70
13093;DHT22;6612;49.568;11.000;2022-07-29T07:50:50;38.50;21.90
13093;DHT22;6612;49.568;11.000;2022-07-29T07:53:17;38.20;22.20
13093;DHT22;6612;49.568;11.000;2022-07-29T07:55:44;37.80;22.50
13093;DHT22;6612;49.568;11.000;2022-07-29T07:58:12;37.50;22.50
13093;DHT22;6612;49.568;11.000;2022-07-29T08:00:39;37.20;22.70
13093;DHT22;6612;49.568;11.000;2022-07-29T08:03:06;36.90;23.00
13093;DHT22;6612;49.568;11.000;2022-07-29T08:05:34;36.70;23.20
13093;DHT22;6612;49.568;11.000;2022-07-29T08:08:01;36.40;23.50
13093;DHT22;6612;49.568;11.000;2022-07-29T08:10:28;36.20;23.60
13093;DHT22;6612;49.568;11.000;2022-07-29T08:13:09;36.10;23.80
13093;DHT22;6612;49.568;11.000;2022-07-29T08:15:39;35.90;23.90
13093;DHT22;6612;49.568;11.000;2022-07-29T08:18:06;35.80;24.30
13093;DHT22;6612;49.568;11.000;2022-07-29T08:20:33;35.80;24.80
13093;DHT22;6612;49.568;11.000;2022-07-29T08:23:01;35.90;24.70
13093;DHT22;6612;49.568;11.000;2022-07-29T08:25:27;35.90;24.60
13093;DHT22;6612;49.568;11.000;2022-07-29T08:27:54;36.00;24.70
13093;DHT22;6612;49.568;11.000;2022-07-29T08:30:22;36.00;24.80
13093;DHT22;6612;49.568;11.000;2022-07-29T08:32:50;36.00;24.70
13093;DHT22;6612;49.568;11.000;2022-07-29T08:35:19;36.00;24.70
13093;DHT22;6612;49.568;11.000;2022-07-29T08:37:46;35.90;24.90
13093;DHT22;6612;49.568;11.000;2022-07-29T08:40:14;36.00;25.40
13093;DHT22;6612;49.568;11.000;2022-07-29T08:42:41;36.00;25.30
13093;DHT22;6612;49.568;11.000;2022-07-29T08:45:09;36.10;25.20
13093;DHT22;6612;49.568;11.000;2022-07-29T08:47:37;36.20;25.60
13093;DHT22;6612;49.568;11.000;2022-07-29T08:50:07;36.30;25.40
13093;DHT22;6612;49.568;11.000;2022-07-29T08:52:36;36.50;25.40
13093;DHT22;6612;49.568;11.000;2022-07-29T08:55:05;36.60;25.20
13093;DHT22;6612;49.568;11.000;2022-07-29T08:57:34;36.70;24.90
13093;DHT22;6612;49.568;11.000;2022-07-29T09:00:03;36.80;24.80
13093;DHT22;6612;49.568;11.000;2022-07-29T09:02:36;36.80;24.70
13093;DHT22;6612;49.568;11.000;2022-07-29T09:05:07;36.90;24.90
13093;DHT22;6612;49.568;11.000;2022-07-29T09:07:35;36.90;24.90
13093;DHT22;6612;49.568;11.000;2022-07-29T09:10:04;37.00;25.10
13093;DHT22;6612;49.568;11.000;2022-07-29T09:12:31;37.00;24.80
13093;DHT22;6612;49.568;11.000;2022-07-29T09:14:58;37.10;24.60
13093;DHT22;6612;49.568;11.000;2022-07-29T09:17:42;37.10;24.40
13093;DHT22;6612;49.568;11.000;2022-07-29T09:20:12;37.20;24.50
13093;DHT22;6612;49.568;11.000;2022-07-29T09:22:39;37.20;24.50
13093;DHT22;6612;49.568;11.000;2022-07-29T09:25:06;37.20;24.50
13093;DHT22;6612;49.568;11.000;2022-07-29T09:27:33;37.20;24.50
13093;DHT22;6612;49.568;11.000;2022-07-29T09:30:03;37.20;24.30
13093;DHT22;6612;49.568;11.000;2022-07-29T09:32:31;37.10;24.00
13093;DHT22;6612;49.568;11.000;2022-07-29T09:35:19;37.00;24.20
13093;DHT22;6612;49.568;11.000;2022-07-29T09:37:46;37.00;24.10
13093;DHT22;6612;49.568;11.000;2022-07-29T09:40:15;37.00;24.20
13093;DHT22;6612;49.568;11.000;2022-07-29T09:42:43;36.90;24.10
13093;DHT22;6612;49.568;11.000;2022-07-29T09:45:10;36.90;24.00
13093;DHT22;6612;49.568;11.000;2022-07-29T09:47:43;36.80;23.90
13093;DHT22;6612;49.568;11.000;2022-07-29T09:50:12;36.70;24.00
13093;DHT22;6612;49.568;11.000;2022-07-29T09:52:49;36.60;24.00
13093;DHT22;6612;49.568;11.000;2022-07-29T09:55:17;36.50;24.20
13093;DHT22;6612;49.568;11.000;2022-07-29T09:57:44;36.40;24.20
13093;DHT22;6612;49.568;11.000;2022-07-29T10:00:13;36.40;24.30
13093;DHT22;6612;49.568;11.000;2022-07-29T10:02:42;36.30;24.40
13093;DHT22;6612;49.568;11.000;2022-07-29T10:05:18;36.30;24.50
13093;DHT22;6612;49.568;11.000;2022-07-29T10:07:48;36.20;24.50
13093;DHT22;6612;49.568;11.000;2022-07-29T10:10:22;36.20;24.50
13093;DHT22;6612;49.568;11.000;2022-07-29T10:12:52;36.20;24.80
13093;DHT22;6612;49.568;11.000;2022-07-29T10:15:20;36.20;24.90
13093;DHT22;6612;49.568;11.000;2022-07-29T10:17:47;36.20;24.90
13093;DHT22;6612;49.568;11.000;2022-07-29T10:20:15;36.20;24.90
13093;DHT22;6612;49.568;11.000;2022-07-29T10:22:42;36.20;24.90
13093;DHT22;6612;49.568;11.000;2022-07-29T10:25:11;36.20;25.10
13093;DHT22;6612;49.568;11.000;2022-07-29T10:27:38;36.30;25.20
13093;DHT22;6612;49.568;11.000;2022-07-29T10:30:06;36.30;25.60
13093;DHT22;6612;49.568;11.000;2022-07-29T10:35:39;36.50;25.20
13093;DHT22;6612;49.568;11.000;2022-07-29T10:38:43;36.60;25.10
13093;DHT22;6612;49.568;11.000;2022-07-29T10:41:28;36.60;24.90
13093;DHT22;6612;49.568;11.000;2022-07-29T10:44:01;36.60;24.80
13093;DHT22;6612;49.568;11.000;2022-07-29T10:46:34;36.70;24.90
13093;DHT22;6612;49.568;11.000;2022-07-29T10:49:05;36.80;25.00
13093;DHT22;6612;49.568;11.000;2022-07-29T10:51:52;36.80;25.00
13093;DHT22;6612;49.568;11.000;2022-07-29T10:54:39;36.90;25.10
13093;DHT22;6612;49.568;11.000;2022-07-29T10:57:17;37.00;25.10
13093;DHT22;6612;49.568;11.000;2022-07-29T10:59:46;37.20;24.80
13093;DHT22;6612;49.568;11.000;2022-07-29T11:02:43;37.30;24.60
13093;DHT22;6612;49.568;11.000;2022-07-29T11:05:12;37.40;24.50
13093;DHT22;6612;49.568;11.000;2022-07-29T11:08:16;37.40;24.70
13093;DHT22;6612;49.568;11.000;2022-07-29T11:10:27;37.50;24.60
13093;DHT22;6612;49.568;11.000;2022-07-29T11:12:55;37.50;24.70
13093;DHT22;6612;49.568;11.000;2022-07-29T11:15:23;37.60;24.70
13093;DHT22;6612;49.568;11.000;2022-07-29T11:18:06;37.60;24.50
13093;DHT22;6612;49.568;11.000;2022-07-29T11:20:38;37.60;24.30
13093;DHT22;6612;49.568;11.000;2022-07-29T11:23:24;37.60;24.50
13093;DHT22;6612;49.568;11.000;2022-07-29T11:26:15;37.60;24.70
13093;DHT22;6612;49.568;11.000;2022-07-29T11:28:59;37.70;24.80
13093;DHT22;6612;49.568;11.000;2022-07-29T11:31:35;37.70;24.80
13093;DHT22;6612;49.568;11.000;2022-07-29T11:34:27;37.70;24.80
13093;DHT22;6612;49.568;11.000;2022-07-29T11:37:25;37.80;24.70
13093;DHT22;6612;49.568;11.000;2022-07-29T11:40:11;37.80;24.60
13093;DHT22;6612;49.568;11.000;2022-07-29T11:42:43;37.90;24.70
13093;DHT22;6612;49.568;11.000;2022-07-29T11:45:17;37.90;24.60
13093;DHT22;6612;49.568;11.000;2022-07-29T11:47:53;37.90;25.00
13093;DHT22;6612;49.568;11.000;2022-07-29T11:50:34;37.90;24.30
13093;DHT22;6612;49.568;11.000;2022-07-29T11:53:03;37.80;24.30
13093;DHT22;6612;49.568;11.000;2022-07-29T11:55:38;37.70;24.30
13093;DHT22;6612;49.568;11.000;2022-07-29T11:58:08;37.60;24.30
13093;DHT22;6612;49.568;11.000;2022-07-29T12:00:38;37.60;24.30
13093;DHT22;6612;49.568;11.000;2022-07-29T12:03:09;37.50;24.20
13093;DHT22;6612;49.568;11.000;2022-07-29T12:05:44;37.30;24.10
13093;DHT22;6612;49.568;11.000;2022-07-29T12:08:18;37.10;24.30
13093;DHT22;6612;49.568;11.000;2022-07-29T12:10:52;37.00;24.60
13093;DHT22;6612;49.568;11.000;2022-07-29T12:13:20;36.80;24.80
13093;DHT22;6612;49.568;11.000;2022-07-29T12:15:56;36.70;24.90
13093;DHT22;6612;49.568;11.000;2022-07-29T12:18:26;36.70;25.00
13093;DHT22;6612;49.568;11.000;2022-07-29T12:20:57;36.50;25.00
13093;DHT22;6612;49.568;11.000;2022-07-29T12:23:29;36.40;25.30
13093;DHT22;6612;49.568;11.000;2022-07-29T12:25:58;36.20;25.30
13093;DHT22;6612;49.568;11.000;2022-07-29T12:28:25;36.10;25.50
13093;DHT22;6612;49.568;11.000;2022-07-29T12:30:56;35.90;25.50
13093;DHT22;6612;49.568;11.000;2022-07-29T12:33:25;35.70;25.70
13093;DHT22;6612;49.568;11.000;2022-07-29T12:35:57;35.60;25.80
13093;DHT22;6612;49.568;11.000;2022-07-29T12:38:25;35.40;26.00
13093;DHT22;6612;49.568;11.000;2022-07-29T12:40:54;35.20;26.10
13093;DHT22;6612;49.568;11.000;2022-07-29T12:43:23;35.10;26.20
13093;DHT22;6612;49.568;11.000;2022-07-29T12:45:52;35.00;26.30
13093;DHT22;6612;49.568;11.000;2022-07-29T12:48:34;34.90;26.30
13093;DHT22;6612;49.568;11.000;2022-07-29T12:51:07;34.90;26.40
13093;DHT22;6612;49.568;11.000;2022-07-29T12:53:39;34.90;26.60
13093;DHT22;6612;49.568;11.000;2022-07-29T12:56:15;34.90;27.00
13093;DHT22;6612;49.568;11.000;2022-07-29T12:58:45;34.90;26.70
13093;DHT22;6612;49.568;11.000;2022-07-29T13:01:16;35.00;26.70
13093;DHT22;6612;49.568;11.000;2022-07-29T13:03:49;35.10;26.70
13093;DHT22;6612;49.568;11.000;2022-07-29T13:06:31;35.10;26.60
13093;DHT22;6612;49.568;11.000;2022-07-29T13:09:07;35.20;26.40
13093;DHT22;6612;49.568;11.000;2022-07-29T13:11:41;35.30;26.40
13093;DHT22;6612;49.568;11.000;2022-07-29T13:14:12;35.30;26.30
13093;DHT22;6612;49.568;11.000;2022-07-29T13:17:04;35.30;26.20
13093;DHT22;6612;49.568;11.000;2022-07-29T13:19:40;35.20;26.20
13093;DHT22;6612;49.568;11.000;2022-07-29T13:22:08;35.20;26.30
13093;DHT22;6612;49.568;11.000;2022-07-29T13:24:50;35.20;26.30
13093;DHT22;6612;49.568;11.000;2022-07-29T13:27:19;35.20;26.30
13093;DHT22;6612;49.568;11.000;2022-07-29T13:29:46;35.20;26.20
13093;DHT22;6612;49.568;11.000;2022-07-29T13:32:13;35.20;26.20
13093;DHT22;6612;49.568;11.000;2022-07-29T13:34:45;35.20;26.10
13093;DHT22;6612;49.568;11.000;2022-07-29T13:37:13;35.20;26.00
13093;DHT22;6612;49.568;11.000;2022-07-29T13:39:46;35.30;26.10
13093;DHT22;6612;49.568;11.000;2022-07-29T13:42:16;35.30;26.30
13093;DHT22;6612;49.568;11.000;2022-07-29T13:44:43;35.30;26.20
13093;DHT22;6612;49.568;11.000;2022-07-29T13:47:10;35.20;26.20
13093;DHT22;6612;49.568;11.000;2022-07-29T13:49:37;35.20;26.30
13093;DHT22;6612;49.568;11.000;2022-07-29T13:52:06;35.10;26.30
13093;DHT22;6612;49.568;11.000;2022-07-29T13:54:37;35.00;26.30
13093;DHT22;6612;49.568;11.000;2022-07-29T13:57:04;34.90;26.50
13093;DHT22;6612;49.568;11.000;2022-07-29T13:59:31;34.80;26.60
13093;DHT22;6612;49.568;11.000;2022-07-29T14:01:58;34.60;26.70
13093;DHT22;6612;49.568;11.000;2022-07-29T14:04:26;34.40;26.80
13093;DHT22;6612;49.568;11.000;2022-07-29T14:06:53;34.30;26.80
13093;DHT22;6612;49.568;11.000;2022-07-29T14:09:21;34.10;26.90
13093;DHT22;6612;49.568;11.000;2022-07-29T14:11:48;33.90;27.00
13093;DHT22;6612;49.568;11.000;2022-07-29T14:14:16;33.70;27.20
13093;DHT22;6612;49.568;11.000;2022-07-29T14:16:44;33.60;27.40
13093;DHT22;6612;49.568;11.000;2022-07-29T14:19:11;33.40;27.60
13093;DHT22;6612;49.568;11.000;2022-07-29T14:21:38;33.20;27.90
13093;DHT22;6612;49.568;11.000;2022-07-29T14:24:06;33.10;30.10
13093;DHT22;6612;49.568;11.000;2022-07-29T14:26:34;32.70;35.90
13093;DHT22;6612;49.568;11.000;2022-07-29T14:29:01;32.30;39.80
13093;DHT22;6612;49.568;11.000;2022-07-29T14:31:29;31.70;41.80
13093;DHT22;6612;49.568;11.000;2022-07-29T14:33:56;31.10;43.00
13093;DHT22;6612;49.568;11.000;2022-07-29T14:36:23;30.40;44.20
13093;DHT22;6612;49.568;11.000;2022-07-29T14:38:50;29.70;45.90
13093;DHT22;6612;49.568;11.000;2022-07-29T14:41:17;29.00;47.30
13093;DHT22;6612;49.568;11.000;2022-07-29T14:43:45;28.40;48.80
13093;DHT22;6612;49.568;11.000;2022-07-29T14:46:12;27.90;50.50
13093;DHT22;6612;49.568;11.000;2022-07-29T14:48:39;27.40;51.50
13093;DHT22;6612;49.568;11.000;2022-07-29T14:51:06;27.00;52.50
13093;DHT22;6612;49.568;11.000;2022-07-29T14:53:33;26.60;53.40
13093;DHT22;6612;49.568;11.000;2022-07-29T14:56:00;26.20;54.80
13093;DHT22;6612;49.568;11.000;2022-07-29T14:58:27;25.90;55.80
13093;DHT22;6612;49.568;11.000;2022-07-29T15:00:55;25.60;57.40
13093;DHT22;6612;49.568;11.000;2022-07-29T15:03:22;25.30;57.70
13093;DHT22;6612;49.568;11.000;2022-07-29T15:05:49;25.10;58.10
13093;DHT22;6612;49.568;11.000;2022-07-29T15:08:16;25.00;59.00
13093;DHT22;6612;49.568;11.000;2022-07-29T15:10:43;24.80;59.70
13093;DHT22;6612;49.568;11.000;2022-07-29T15:13:10;24.60;60.20
13093;DHT22;6612;49.568;11.000;2022-07-29T15:15:37;24.50;60.50
13093;DHT22;6612;49.568;11.000;2022-07-29T15:18:06;24.40;61.40
13093;DHT22;6612;49.568;11.000;2022-07-29T15:20:34;24.30;61.90
13093;DHT22;6612;49.568;11.000;2022-07-29T15:23:01;24.20;62.60
13093;DHT22;6612;49.568;11.000;2022-07-29T15:25:28;24.10;63.20
13093;DHT22;6612;49.568;11.000;2022-07-29T15:27:55;24.10;63.90
13093;DHT22;6612;49.568;11.000;2022-07-29T15:30:25;24.10;64.50
13093;DHT22;6612;49.568;11.000;2022-07-29T15:32:52;24.00;65.10
13093;DHT22;6612;49.568;11.000;2022-07-29T15:35:20;24.00;65.80
13093;DHT22;6612;49.568;11.000;2022-07-29T15:37:47;24.00;66.80
13093;DHT22;6612;49.568;11.000;2022-07-29T15:40:14;24.00;67.10
13093;DHT22;6612;49.568;11.000;2022-07-29T15:42:41;24.00;67.50
13093;DHT22;6612;49.568;11.000;2022-07-29T15:45:09;24.00;68.10
13093;DHT22;6612;49.568;11.000;2022-07-29T15:47:36;24.00;68.80
13093;DHT22;6612;49.568;11.000;2022-07-29T15:50:03;24.00;69.20
13093;DHT22;6612;49.568;11.000;2022-07-29T15:52:33;24.10;69.70